Time;durP1;ratioP1;P1;durP2;ratioP2;P2;SDS_P1;SDS_P2;PMS_P1;PMS_P2;Temp;Humidity;BMP_temperature;BMP_pressure;BME280_temperature;BME280_humidity;BME280_pressure;Samples;Min_cycle;Max_cycle;Signal;HPM_P1;HPM_P2
2023/04/18 00:03:41;;;;;;;3.60;1.35;;;;;;;25.20;35.25;100266.34;20997048;28;20052;-72
2023/04/18 00:13:47;;;;;;;5.32;1.20;;;;;;;25.51;35.45;100363.44;20998418;28;20052;-71
2023/04/18 00:23:54;;;;;;;8.00;1.20;;;;;;;25.55;34.58;100407.28;20959878;28;20040;-72
2023/04/18 00:33:55;;;;;;;3.60;1.10;;;;;;;25.63;34.55;100424.44;20981639;28;20041;-72
2023/04/18 00:43:59;;;;;;;2.50;1.10;;;;;;;25.57;33.81;100427.41;20990450;28;20074;-71
2023/04/18 00:54:06;;;;;;;21.88;1.92;;;;;;;25.56;34.33;100464.13;20995292;28;20036;-72
2023/04/18 01:04:08;;;;;;;1.77;0.93;;;;;;;25.53;33.85;100476.00;20982372;28;20044;-71
2023/04/18 01:14:10;;;;;;;2.55;0.80;;;;;;;25.49;33.65;100463.78;20990535;28;20102;-71
2023/04/18 01:24:15;;;;;;;1.50;1.02;;;;;;;25.49;34.91;100475.00;20989393;28;20098;-70
2023/04/18 01:34:17;;;;;;;2.75;0.70;;;;;;;25.31;32.52;100465.69;21010283;28;20049;-71
2023/04/18 01:44:18;;;;;;;7.57;1.90;;;;;;;25.38;34.04;100513.66;20990832;28;20048;-74
2023/04/18 01:54:20;;;;;;;4.25;1.00;;;;;;;25.44;33.52;100546.00;21004628;28;20049;-72
2023/04/18 02:04:25;;;;;;;2.78;1.00;;;;;;;25.43;33.46;100538.75;21008253;28;20049;-74
2023/04/18 02:14:30;;;;;;;3.17;0.77;;;;;;;25.26;33.36;100514.25;20953061;28;20044;-73
2023/04/18 02:24:31;;;;;;;1.98;1.00;;;;;;;25.33;32.56;100537.00;20966584;28;20097;-73
2023/04/18 02:34:32;;;;;;;2.50;0.82;;;;;;;25.40;32.97;100552.56;20963170;28;20067;-71
2023/04/18 02:44:34;;;;;;;2.55;0.90;;;;;;;25.37;34.00;100576.41;20954971;28;20044;-73
2023/04/18 02:54:38;;;;;;;2.72;0.90;;;;;;;25.18;33.64;100543.03;20934157;28;20033;-73
2023/04/18 03:04:42;;;;;;;5.28;0.85;;;;;;;25.26;32.09;100581.47;20908407;28;20041;-71
2023/04/18 03:14:44;;;;;;;7.03;1.17;;;;;;;25.40;31.75;100601.00;20971692;28;20052;-71
2023/04/18 03:24:54;;;;;;;5.22;0.80;;;;;;;25.38;30.30;100627.66;20993297;28;20050;-70
2023/04/18 03:34:58;;;;;;;2.03;0.98;;;;;;;25.37;30.66;100626.84;20986027;28;20079;-71
2023/04/18 03:44:59;;;;;;;3.00;0.88;;;;;;;25.33;31.48;100623.84;20976327;28;20065;-71
2023/04/18 03:55:01;;;;;;;2.03;1.17;;;;;;;25.29;30.99;100631.25;20962532;28;20086;-72
2023/04/18 04:05:05;;;;;;;2.22;0.80;;;;;;;25.01;30.91;100596.06;20967211;28;20041;-71
2023/04/18 04:15:07;;;;;;;1.73;0.68;;;;;;;25.18;28.91;100632.63;20980073;28;20495;-71
2023/04/18 04:25:09;;;;;;;1.05;0.80;;;;;;;25.20;32.01;100635.97;20984775;28;20040;-72
2023/04/18 04:35:13;;;;;;;2.50;0.98;;;;;;;25.23;33.20;100645.69;20983857;28;20041;-73
2023/04/18 04:45:14;;;;;;;3.42;0.82;;;;;;;25.34;32.55;100647.94;20989305;28;20391;-73
2023/04/18 04:55:16;;;;;;;4.55;0.82;;;;;;;25.41;29.67;100638.25;20994108;28;20045;-73
2023/04/18 05:05:20;;;;;;;5.60;1.80;;;;;;;25.47;29.26;100648.97;21010512;28;20045;-72
2023/04/18 05:15:23;;;;;;;3.00;0.82;;;;;;;25.48;29.38;100649.84;21007602;28;20047;-73
2023/04/18 05:25:24;;;;;;;1.48;0.90;;;;;;;25.46;28.99;100610.09;20995457;28;20044;-73
2023/04/18 05:35:26;;;;;;;0.85;0.75;;;;;;;25.47;30.12;100628.56;20982127;28;20094;-73
2023/04/18 05:45:27;;;;;;;1.33;0.70;;;;;;;25.49;29.37;100609.47;20966157;28;20121;-73
2023/04/18 05:55:29;;;;;;;0.93;0.88;;;;;;;25.48;29.50;100613.41;21055346;28;20048;-73
2023/04/18 06:05:30;;;;;;;0.68;0.60;;;;;;;25.49;29.89;100615.06;20979940;28;20447;-73
2023/04/18 06:15:31;;;;;;;5.25;0.90;;;;;;;25.45;31.86;100606.47;20907815;28;20053;-73
2023/04/18 06:25:33;;;;;;;2.33;0.90;;;;;;;25.33;29.95;100570.63;20913962;28;20374;-73
2023/04/18 06:35:37;;;;;;;1.52;0.80;;;;;;;25.49;29.89;100584.25;20838829;28;20025;-75
2023/04/18 06:45:39;;;;;;;1.70;0.88;;;;;;;25.50;30.21;100574.69;20836820;28;20041;-73
2023/04/18 06:55:40;;;;;;;2.20;0.70;;;;;;;25.50;30.61;100585.91;20837156;28;20119;-73
2023/04/18 07:05:41;;;;;;;0.82;0.80;;;;;;;25.25;30.03;100549.03;20900105;28;20431;-73
2023/04/18 07:15:43;;;;;;;1.48;0.63;;;;;;;25.50;31.30;100577.50;21000848;28;20036;-73
2023/04/18 07:25:44;;;;;;;1.27;0.60;;;;;;;25.50;30.67;100566.28;20997645;28;20110;-73
2023/04/18 07:35:46;;;;;;;0.60;0.60;;;;;;;25.39;30.11;100559.31;20998656;28;20480;-75
2023/04/18 07:45:47;;;;;;;1.17;0.70;;;;;;;25.45;30.83;100553.25;20979272;28;20070;-73
2023/04/18 07:55:49;;;;;;;0.98;0.88;;;;;;;25.48;30.42;100561.00;20998095;28;20593;-75
2023/04/18 08:05:50;;;;;;;0.60;0.60;;;;;;;25.46;30.15;100559.66;20996743;28;20380;-74
2023/04/18 08:15:52;;;;;;;1.10;0.82;;;;;;;25.46;30.54;100545.66;20995914;28;20411;-74
2023/04/18 08:25:53;;;;;;;1.33;0.80;;;;;;;25.44;30.42;100542.38;20994079;28;20568;-73
2023/04/18 08:35:55;;;;;;;2.60;0.70;;;;;;;25.44;30.26;100559.19;20992198;28;20040;-74
2023/04/18 08:45:59;;;;;;;0.93;0.73;;;;;;;25.23;30.83;100539.28;20914890;28;20094;-74
2023/04/18 08:56:01;;;;;;;0.60;0.60;;;;;;;25.42;31.14;100581.06;20952761;28;20455;-74
2023/04/18 09:06:13;;;;;;;0.68;0.68;;;;;;;25.41;31.53;100568.22;20972008;28;20049;-72
2023/04/18 09:16:14;;;;;;;1.67;0.60;;;;;;;25.39;31.36;100576.13;20936808;28;20037;-74
2023/04/18 09:26:32;;;;;;;0.90;0.70;;;;;;;25.37;32.21;100581.19;20975449;28;20033;-74
2023/04/18 09:36:37;;;;;;;0.60;0.60;;;;;;;24.74;31.50;100466.31;20986337;28;20041;-74
2023/04/18 09:46:38;;;;;;;0.60;0.60;;;;;;;25.39;31.53;100564.91;20998016;28;20557;-74
2023/04/18 09:56:44;;;;;;;1.25;0.70;;;;;;;25.26;31.25;100531.06;21004805;28;20044;-74
2023/04/18 10:06:46;;;;;;;1.13;0.70;;;;;;;25.36;30.57;100555.16;21001371;28;20044;-74
2023/04/18 10:16:47;;;;;;;0.82;0.73;;;;;;;25.33;30.77;100562.22;21002370;28;20075;-73
2023/04/18 10:26:51;;;;;;;1.45;0.70;;;;;;;25.32;31.35;100571.78;21001461;28;20040;-74
2023/04/18 10:37:05;;;;;;;0.73;0.73;;;;;;;25.27;32.10;100585.09;20975423;28;20103;-74
2023/04/18 10:47:09;;;;;;;1.38;0.98;;;;;;;25.30;32.32;100585.28;20976892;28;20048;-73
2023/04/18 10:57:12;;;;;;;1.92;0.70;;;;;;;25.27;34.03;100588.72;20958508;28;20059;-74
2023/04/18 11:07:13;;;;;;;2.25;0.70;;;;;;;25.30;33.99;100579.69;20950340;28;20348;-73
2023/04/18 11:17:28;;;;;;;0.50;0.50;;;;;;;25.28;34.35;100598.78;20910949;28;20106;-74
2023/04/18 11:27:32;;;;;;;1.45;0.80;;;;;;;25.28;34.44;100606.34;20894743;28;20048;-73
2023/04/18 11:37:36;;;;;;;2.55;0.93;;;;;;;25.28;34.71;100604.38;20913515;28;20045;-74
2023/04/18 11:47:42;;;;;;;8.52;1.00;;;;;;;25.22;35.24;100619.66;20916981;28;20052;-74
2023/04/18 11:57:51;;;;;;;7.68;1.10;;;;;;;25.16;35.22;100629.34;20847331;28;20041;-73
2023/04/18 12:07:53;;;;;;;6.43;1.10;;;;;;;25.10;34.86;100627.78;20932550;28;20075;-73
2023/04/18 12:18:00;;;;;;;3.42;1.20;;;;;;;24.93;34.89;100602.44;20962853;28;20063;-73
2023/04/18 12:28:11;;;;;;;2.28;1.23;;;;;;;25.15;34.62;100633.25;20991657;28;20483;-72
2023/04/18 12:38:13;;;;;;;3.22;1.20;;;;;;;25.02;34.77;100618.16;20957617;28;20040;-73
2023/04/18 12:48:14;;;;;;;2.08;0.95;;;;;;;24.42;34.63;100530.84;20954645;28;20048;-73
2023/04/18 12:58:17;;;;;;;4.72;1.45;;;;;;;25.01;34.62;100616.47;20989427;28;20032;-73
2023/04/18 13:08:19;;;;;;;1.95;0.90;;;;;;;24.90;34.01;100591.88;20928500;28;20045;-74
2023/04/18 13:18:20;;;;;;;6.10;1.20;;;;;;;24.85;34.36;100579.66;20913737;28;20550;-73
2023/04/18 13:28:21;;;;;;;1.85;1.10;;;;;;;25.01;35.50;100604.47;20972476;28;20044;-70
2023/04/18 13:38:23;;;;;;;7.47;1.65;;;;;;;24.91;35.49;100593.50;21004789;28;20560;-72
2023/04/18 13:48:24;;;;;;;6.75;1.50;;;;;;;24.97;35.29;100611.84;20976331;28;20037;-72
2023/04/18 13:58:26;;;;;;;2.53;1.10;;;;;;;24.94;34.91;100620.88;20970414;28;20478;-72
2023/04/18 14:08:28;;;;;;;3.53;1.58;;;;;;;24.92;34.89;100617.56;20982898;28;20049;-74
2023/04/18 14:18:29;;;;;;;6.40;1.50;;;;;;;24.83;35.00;100609.06;20936210;28;20041;-75
2023/04/18 14:28:30;;;;;;;5.82;1.50;;;;;;;24.93;34.37;100638.81;20961852;28;20048;-75
2023/04/18 14:38:32;;;;;;;1.85;1.10;;;;;;;24.81;34.53;100631.78;21001190;28;20066;-75
2023/04/18 14:48:33;;;;;;;1.95;1.20;;;;;;;24.80;34.71;100646.94;21000549;28;20041;-75
2023/04/18 14:58:35;;;;;;;3.13;1.20;;;;;;;24.88;34.41;100650.13;21000137;28;20047;-75
2023/04/18 15:08:36;;;;;;;7.55;1.30;;;;;;;24.45;34.21;100586.19;20999484;28;20044;-75
2023/04/18 15:18:37;;;;;;;4.03;1.40;;;;;;;24.83;34.33;100642.66;20998246;28;20098;-74
2023/04/18 15:28:39;;;;;;;1.55;1.10;;;;;;;24.85;34.36;100634.78;20997130;28;20251;-75
2023/04/18 15:38:43;;;;;;;2.83;1.20;;;;;;;24.82;34.29;100633.44;20996400;28;20835;-75
2023/04/18 15:48:44;;;;;;;4.60;1.13;;;;;;;24.80;34.32;100620.91;20996066;28;20032;-75
2023/04/18 15:58:45;;;;;;;1.10;1.00;;;;;;;24.82;34.32;100629.81;20977768;28;20032;-75
2023/04/18 16:08:47;;;;;;;1.65;1.25;;;;;;;24.83;34.24;100632.31;20993791;28;20045;-75
2023/04/18 16:18:54;;;;;;;1.63;1.13;;;;;;;24.83;34.09;100643.50;20994479;28;20077;-75
2023/04/18 16:28:56;;;;;;;2.57;1.40;;;;;;;24.81;34.15;100637.38;20992157;28;20044;-75
2023/04/18 16:38:57;;;;;;;2.05;1.10;;;;;;;24.83;34.29;100646.31;20992290;28;20274;-75
2023/04/18 16:49:00;;;;;;;1.38;1.27;;;;;;;24.65;34.24;100624.91;20974250;28;20055;-75
2023/04/18 16:59:02;;;;;;;1.63;1.10;;;;;;;24.79;33.54;100636.06;21016020;28;20036;-75
2023/04/18 17:09:05;;;;;;;3.30;1.20;;;;;;;24.79;33.47;100625.69;21018722;28;20040;-75
2023/04/18 17:19:09;;;;;;;1.40;1.30;;;;;;;24.79;34.20;100636.06;21019213;28;20102;-76
2023/04/18 17:29:10;;;;;;;1.13;1.00;;;;;;;24.62;33.72;100597.53;21019702;28;20055;-75
2023/04/18 17:39:20;;;;;;;1.40;1.15;;;;;;;24.59;33.45;100609.34;21018393;28;20036;-75
2023/04/18 17:49:21;;;;;;;1.35;1.10;;;;;;;24.73;33.78;100632.53;21018133;28;20090;-73
2023/04/18 17:59:23;;;;;;;1.77;1.08;;;;;;;24.72;33.93;100653.25;21017685;28;20090;-75
2023/04/18 18:09:27;;;;;;;1.70;1.10;;;;;;;24.67;33.36;100649.75;21005579;28;20048;-74
2023/04/18 18:19:33;;;;;;;1.02;1.00;;;;;;;24.70;33.54;100649.97;21003693;28;20033;-75
2023/04/18 18:29:34;;;;;;;1.88;1.33;;;;;;;24.76;33.32;100661.88;21002625;28;20094;-76
2023/04/18 18:39:36;;;;;;;2.45;1.60;;;;;;;24.59;33.27;100637.31;20946515;28;20041;-75
2023/04/18 18:49:37;;;;;;;1.85;1.17;;;;;;;24.68;33.46;100671.81;20915887;28;20045;-75
2023/04/18 18:59:38;;;;;;;2.53;1.25;;;;;;;24.76;32.91;100675.84;20919349;28;20472;-76
2023/04/18 19:09:40;;;;;;;1.30;1.20;;;;;;;24.74;33.76;100673.38;20935216;28;20048;-76
2023/04/18 19:19:41;;;;;;;1.38;1.13;;;;;;;24.73;33.18;100660.50;20897816;28;20400;-74
2023/04/18 19:29:43;;;;;;;3.35;1.20;;;;;;;24.74;33.01;100683.72;20904299;28;20084;-74
2023/04/18 19:39:44;;;;;;;2.78;1.48;;;;;;;24.72;31.91;100686.84;20905150;28;20480;-74
2023/04/18 19:49:45;;;;;;;1.20;1.02;;;;;;;24.67;32.78;100692.56;20906561;28;20476;-74
2023/04/18 19:59:47;;;;;;;1.60;1.50;;;;;;;24.47;32.00;100651.03;20872306;28;20037;-75
2023/04/18 20:09:48;;;;;;;1.83;1.10;;;;;;;24.60;31.69;100683.75;20932359;28;20446;-75
2023/04/18 20:19:49;;;;;;;2.60;1.30;;;;;;;24.42;31.18;100679.09;20874324;28;20644;-75
2023/04/18 20:29:51;;;;;;;1.73;1.50;;;;;;;24.46;31.18;100688.50;20829448;28;20045;-77
2023/04/18 20:39:54;;;;;;;1.98;1.50;;;;;;;24.51;30.44;100714.44;20833534;28;20082;-73
2023/04/18 20:49:55;;;;;;;3.70;1.73;;;;;;;24.58;31.55;100706.44;20869702;28;20113;-74
2023/04/18 20:59:59;;;;;;;2.00;1.75;;;;;;;24.54;28.69;100730.56;20899607;28;20098;-77
2023/04/18 21:10:04;;;;;;;2.95;1.65;;;;;;;24.30;28.64;100691.59;20900379;28;20127;-75
2023/04/18 21:20:07;;;;;;;13.13;2.47;;;;;;;23.68;28.95;100623.19;20904633;28;20064;-75
2023/04/18 21:30:12;;;;;;;3.75;1.70;;;;;;;24.30;27.48;100736.34;20980462;28;20097;-82
2023/04/18 21:40:14;;;;;;;4.75;1.75;;;;;;;24.25;27.14;100756.00;20997317;28;20045;-83
2023/04/18 21:50:15;;;;;;;2.55;1.42;;;;;;;24.04;26.48;100747.16;20899724;28;20092;-79
2023/04/18 22:00:17;;;;;;;3.78;1.83;;;;;;;24.22;25.93;100823.72;20934057;28;20115;-83
2023/04/18 22:10:18;;;;;;;2.95;1.67;;;;;;;24.13;25.63;100847.09;20954301;28;20078;-80
2023/04/18 22:20:20;;;;;;;1.98;1.70;;;;;;;24.00;26.39;100848.69;20967953;28;20445;-83
2023/04/18 22:30:21;;;;;;;2.53;1.90;;;;;;;23.90;24.33;100863.66;20976319;28;20032;-76
2023/04/18 22:40:23;;;;;;;2.70;1.77;;;;;;;23.89;24.59;100897.50;21021785;28;20025;-79
2023/04/18 22:50:26;;;;;;;5.78;1.77;;;;;;;23.72;24.84;100907.25;20997757;28;20052;-84
2023/04/18 23:00:27;;;;;;;4.72;1.63;;;;;;;23.75;25.78;100914.19;20975676;28;20040;-79
2023/04/18 23:10:29;;;;;;;3.08;2.25;;;;;;;23.83;25.50;100931.13;20982569;28;20102;-79
2023/04/18 23:20:31;;;;;;;2.35;1.98;;;;;;;23.96;25.81;100965.03;20986988;28;20135;-80
2023/04/18 23:30:35;;;;;;;2.65;1.92;;;;;;;23.73;25.27;100949.97;20998718;28;20040;-79
2023/04/18 23:40:37;;;;;;;3.72;1.40;;;;;;;23.50;26.30;100948.84;21001296;28;20039;-79
2023/04/18 23:50:49;;;;;;;2.00;1.38;;;;;;;23.66;26.45;101023.00;21002463;28;20029;-78
